createdAt,value
2018-03-24T00:02:16.611Z,16.95
2018-03-24T00:04:43.234Z,16.02
2018-03-24T00:07:09.809Z,16.75
2018-03-24T00:09:36.561Z,19.52
2018-03-24T00:12:03.210Z,15.55
2018-03-24T00:14:29.829Z,17.50
2018-03-24T00:16:56.362Z,16.52
2018-03-24T00:19:22.928Z,17.87
2018-03-24T00:21:49.494Z,18.77
2018-03-24T00:24:16.043Z,18.67
2018-03-24T00:26:42.617Z,19.85
2018-03-24T00:29:09.190Z,19.27
2018-03-24T00:31:36.090Z,19.75
2018-03-24T00:34:02.718Z,18.55
2018-03-24T00:36:29.286Z,18.02
2018-03-24T00:38:55.838Z,18.20
2018-03-24T00:41:22.406Z,18.50
2018-03-24T00:43:49.002Z,15.55
2018-03-24T00:46:15.531Z,18.30
2018-03-24T00:48:42.100Z,17.10
2018-03-24T00:51:08.781Z,17.87
2018-03-24T00:53:35.313Z,18.58
2018-03-24T00:56:01.884Z,18.85
2018-03-24T00:58:28.449Z,19.92
2018-03-24T01:00:55.073Z,18.23
2018-03-24T01:03:21.688Z,18.23
2018-03-24T01:05:48.266Z,17.42
2018-03-24T01:08:14.804Z,18.83
2018-03-24T01:10:41.466Z,20.27
2018-03-24T01:13:08.030Z,15.98
2018-03-24T01:15:34.561Z,18.35
2018-03-24T01:18:01.212Z,18.90
2018-03-24T01:20:27.776Z,18.77
2018-03-24T01:22:54.305Z,18.65
2018-03-24T01:25:20.865Z,19.85
2018-03-24T01:27:47.434Z,18.90
2018-03-24T01:30:14.376Z,20.15
2018-03-24T01:32:40.941Z,20.85
2018-03-24T01:35:07.883Z,20.75
2018-03-24T01:37:34.423Z,20.62
2018-03-24T01:40:01.031Z,20.00
2018-03-24T01:42:27.632Z,21.15
2018-03-24T01:44:54.157Z,21.40
2018-03-24T01:47:20.721Z,20.23
2018-03-24T01:49:47.314Z,20.10
2018-03-24T01:52:13.889Z,21.25
2018-03-24T01:54:40.454Z,20.23
2018-03-24T01:57:07.029Z,20.67
2018-03-24T01:59:33.945Z,19.85
2018-03-24T02:02:00.509Z,20.02
2018-03-24T02:04:27.521Z,20.30
2018-03-24T02:06:54.071Z,19.85
2018-03-24T02:09:20.634Z,19.00
2018-03-24T02:11:47.202Z,19.05
2018-03-24T02:14:13.738Z,19.58
2018-03-24T02:16:40.303Z,19.73
2018-03-24T02:19:06.895Z,19.95
2018-03-24T02:21:35.352Z,20.40
2018-03-24T02:24:02.296Z,19.48
2018-03-24T02:26:28.899Z,19.95
2018-03-24T02:28:55.430Z,18.17
2018-03-24T02:31:22.039Z,19.20
2018-03-24T02:33:48.662Z,18.02
2018-03-24T02:36:15.194Z,18.67
2018-03-24T02:38:41.838Z,18.67
2018-03-24T02:41:08.485Z,16.83
2018-03-24T02:43:35.269Z,18.62
2018-03-24T02:46:01.894Z,18.10
2018-03-24T02:48:28.454Z,17.50
2018-03-24T02:50:55.011Z,17.95
2018-03-24T02:53:21.581Z,16.98
2018-03-24T02:55:48.154Z,17.83
2018-03-24T02:58:15.050Z,17.33
2018-03-24T03:00:41.712Z,18.40
2018-03-24T03:03:08.286Z,17.87
2018-03-24T03:05:34.818Z,19.12
2018-03-24T03:08:01.397Z,19.58
2018-03-24T03:10:28.342Z,19.08
2018-03-24T03:12:55.238Z,19.87
2018-03-24T03:15:21.811Z,19.23
2018-03-24T03:17:48.370Z,20.33
2018-03-24T03:20:14.903Z,21.15
2018-03-24T03:22:41.466Z,18.52
2018-03-24T03:25:08.038Z,22.55
2018-03-24T03:27:35.033Z,19.10
2018-03-24T03:30:01.647Z,20.90
2018-03-24T03:32:28.630Z,20.33
2018-03-24T03:34:55.169Z,21.90
2018-03-24T03:37:21.738Z,20.75
2018-03-24T03:39:48.318Z,22.55
2018-03-24T03:42:15.062Z,21.98
2018-03-24T03:44:41.674Z,20.70
2018-03-24T03:47:08.233Z,20.77
2018-03-24T03:49:34.781Z,20.60
2018-03-24T03:52:01.459Z,22.67
2018-03-24T03:54:28.073Z,21.75
2018-03-24T03:56:54.651Z,21.80
2018-03-24T03:59:21.209Z,21.80
2018-03-24T04:01:47.844Z,20.90
2018-03-24T04:04:14.374Z,22.23
2018-03-24T04:06:40.941Z,23.35
2018-03-24T04:09:07.498Z,21.70
2018-03-24T04:11:34.037Z,21.50
2018-03-24T04:14:00.609Z,21.67
2018-03-24T04:16:27.178Z,22.42
2018-03-24T04:18:53.722Z,21.37
2018-03-24T04:21:20.690Z,23.75
2018-03-24T04:23:47.382Z,25.12
2018-03-24T04:26:14.040Z,24.90
2018-03-24T04:28:40.653Z,23.05
2018-03-24T04:31:07.218Z,20.85
2018-03-24T04:33:33.746Z,20.52
2018-03-24T04:36:00.399Z,21.92
2018-03-24T04:38:27.005Z,22.42
2018-03-24T04:40:53.538Z,21.60
2018-03-24T04:43:20.369Z,21.80
2018-03-24T04:45:46.932Z,21.70
2018-03-24T04:48:13.542Z,22.62
2018-03-24T04:50:40.102Z,20.60
2018-03-24T04:53:06.768Z,21.15
2018-03-24T04:55:33.318Z,22.65
2018-03-24T04:57:59.887Z,21.25
2018-03-24T05:00:26.460Z,22.08
2018-03-24T05:02:53.392Z,22.58
2018-03-24T05:05:20.325Z,25.60
2018-03-24T05:07:46.889Z,22.60
2018-03-24T05:10:13.413Z,24.12
2018-03-24T05:12:39.977Z,22.92
2018-03-24T05:15:06.601Z,24.23
2018-03-24T05:17:33.129Z,23.75
2018-03-24T05:19:59.694Z,22.50
2018-03-24T05:22:26.271Z,22.77
2018-03-24T05:24:52.903Z,23.40
2018-03-24T05:27:19.549Z,22.20
2018-03-24T05:29:46.125Z,23.73
2018-03-24T05:32:12.670Z,21.73
2018-03-24T05:34:39.622Z,20.83
2018-03-24T05:37:06.186Z,23.27
2018-03-24T05:39:33.085Z,21.42
2018-03-24T05:42:06.652Z,23.50
2018-03-24T05:44:33.625Z,21.98
2018-03-24T05:47:00.165Z,22.27
2018-03-24T05:49:27.111Z,22.17
2018-03-24T05:51:54.048Z,21.10
2018-03-24T05:54:20.589Z,19.83
2018-03-24T05:56:47.640Z,20.95
2018-03-24T05:59:14.258Z,21.25
2018-03-24T06:01:40.794Z,21.62
2018-03-24T06:04:07.366Z,22.17
2018-03-24T06:06:34.033Z,18.62
2018-03-24T06:09:00.683Z,21.62
2018-03-24T06:11:27.331Z,19.83
2018-03-24T06:13:53.899Z,20.05
2018-03-24T06:16:20.435Z,18.95
2018-03-24T06:18:47.007Z,18.02
2018-03-24T06:21:13.947Z,18.45
2018-03-24T06:23:40.578Z,17.27
2018-03-24T06:26:07.141Z,17.52
2018-03-24T06:28:33.739Z,17.87
2018-03-24T06:34:00.636Z,16.83
2018-03-24T06:36:30.258Z,16.77
2018-03-24T06:38:56.831Z,16.48
2018-03-24T06:41:23.412Z,17.95
2018-03-24T06:43:50.405Z,16.77
2018-03-24T06:46:16.978Z,16.52
2018-03-24T06:48:43.523Z,16.60
2018-03-24T06:51:10.093Z,16.60
2018-03-24T06:53:36.683Z,17.10
2018-03-24T06:56:03.250Z,15.52
2018-03-24T06:58:29.818Z,15.40
2018-03-24T07:00:56.440Z,14.30
2018-03-24T07:03:23.020Z,17.00
2018-03-24T07:05:49.646Z,16.65
2018-03-24T07:08:16.315Z,15.90
2018-03-24T07:10:42.840Z,14.87
2018-03-24T07:13:09.459Z,14.85
2018-03-24T07:15:36.389Z,15.45
2018-03-24T07:18:02.934Z,15.48
2018-03-24T07:20:29.506Z,15.65
2018-03-24T07:22:56.433Z,15.60
2018-03-24T07:25:22.973Z,15.57
2018-03-24T07:27:49.538Z,13.95
2018-03-24T07:30:16.478Z,14.43
2018-03-24T07:32:43.001Z,14.20
2018-03-24T07:35:09.606Z,12.37
2018-03-24T07:37:36.533Z,12.48
2018-03-24T07:40:03.138Z,13.15
2018-03-24T07:42:29.754Z,13.35
2018-03-24T07:44:56.730Z,12.00
2018-03-24T07:47:23.264Z,12.32
2018-03-24T07:49:49.821Z,12.68
2018-03-24T07:52:16.394Z,13.00
2018-03-24T07:54:42.935Z,11.30
2018-03-24T07:57:09.577Z,12.60
2018-03-24T07:59:36.197Z,13.48
2018-03-24T08:02:03.157Z,12.35
2018-03-24T08:04:30.098Z,12.07
2018-03-24T08:06:56.664Z,11.00
2018-03-24T08:09:23.221Z,14.27
2018-03-24T08:11:49.782Z,13.48
2018-03-24T08:14:16.351Z,12.37
2018-03-24T08:16:42.890Z,13.25
2018-03-24T08:19:09.459Z,12.98
2018-03-24T08:21:36.025Z,12.57
2018-03-24T08:24:02.567Z,12.37
2018-03-24T08:26:29.174Z,12.48
2018-03-24T08:28:55.742Z,12.25
2018-03-24T08:31:22.277Z,12.15
2018-03-24T08:33:48.843Z,13.05
2018-03-24T08:36:15.422Z,12.00
2018-03-24T08:38:42.323Z,11.25
2018-03-24T08:41:08.896Z,11.05
2018-03-24T08:43:35.537Z,11.60
2018-03-24T08:46:02.079Z,12.15
2018-03-24T08:48:28.668Z,10.88
2018-03-24T08:50:55.622Z,11.88
2018-03-24T08:53:22.525Z,11.68
2018-03-24T08:55:49.097Z,10.10
2018-03-24T08:58:15.677Z,10.95
2018-03-24T09:00:42.588Z,11.38
2018-03-24T09:03:09.161Z,11.20
2018-03-24T09:05:35.730Z,11.88
2018-03-24T09:08:02.673Z,12.07
2018-03-24T09:10:29.255Z,13.32
2018-03-24T09:12:55.877Z,10.45
2018-03-24T09:15:22.450Z,12.23
2018-03-24T09:17:49.035Z,11.68
2018-03-24T09:20:15.602Z,11.40
2018-03-24T09:22:42.142Z,12.00
2018-03-24T09:25:08.705Z,12.40
2018-03-24T09:27:35.291Z,11.65
2018-03-24T09:30:01.824Z,11.57
2018-03-24T09:32:28.418Z,11.95
2018-03-24T09:34:55.025Z,12.68
2018-03-24T09:37:21.923Z,11.48
2018-03-24T09:39:48.498Z,13.10
2018-03-24T09:42:15.442Z,11.57
2018-03-24T09:44:42.039Z,12.50
2018-03-24T09:47:08.596Z,12.63
2018-03-24T09:49:42.146Z,13.57
2018-03-24T09:52:08.726Z,13.65
2018-03-24T09:54:35.669Z,14.80
2018-03-24T09:57:02.223Z,14.77
2018-03-24T09:59:29.187Z,14.05
2018-03-24T10:01:56.125Z,15.63
2018-03-24T10:04:22.694Z,15.85
2018-03-24T10:06:49.263Z,14.98
2018-03-24T10:09:15.843Z,15.80
2018-03-24T10:11:42.440Z,14.55
2018-03-24T10:14:09.022Z,14.55
2018-03-24T10:16:35.590Z,13.95
2018-03-24T10:19:02.122Z,12.63
2018-03-24T10:21:37.461Z,14.35
2018-03-24T10:27:05.047Z,16.02
2018-03-24T10:29:31.730Z,13.60
2018-03-24T10:31:58.266Z,15.85
2018-03-24T10:34:24.837Z,13.20
2018-03-24T10:36:51.411Z,14.00
2018-03-24T10:39:18.325Z,14.70
2018-03-24T10:41:44.957Z,15.20
2018-03-24T10:44:11.624Z,15.18
2018-03-24T10:46:38.257Z,14.45
2018-03-24T10:49:04.858Z,12.32
2018-03-24T10:51:31.430Z,14.85
2018-03-24T10:53:57.982Z,16.80
2018-03-24T10:56:24.570Z,15.70
2018-03-24T10:58:51.186Z,17.67
2018-03-24T11:01:24.732Z,15.18
2018-03-24T11:03:51.337Z,16.00
2018-03-24T11:06:17.913Z,15.85
2018-03-24T11:08:44.513Z,15.90
2018-03-24T11:11:11.446Z,16.60
2018-03-24T11:13:38.029Z,14.10
2018-03-24T11:16:05.009Z,13.60
2018-03-24T11:18:31.591Z,14.35
2018-03-24T11:20:58.214Z,14.60
2018-03-24T11:23:24.802Z,15.70
2018-03-24T11:25:51.400Z,16.55
2018-03-24T11:28:17.942Z,15.25
2018-03-24T11:30:44.538Z,15.55
2018-03-24T11:33:11.138Z,16.25
2018-03-24T11:35:37.692Z,15.60
2018-03-24T11:38:04.289Z,14.23
2018-03-24T11:40:30.862Z,15.40
2018-03-24T11:42:57.775Z,17.50
2018-03-24T11:45:24.383Z,14.65
2018-03-24T11:47:50.958Z,15.65
2018-03-24T11:50:17.528Z,15.52
2018-03-24T11:52:44.108Z,15.45
2018-03-24T11:55:10.705Z,15.40
2018-03-24T11:57:37.274Z,14.98
2018-03-24T12:00:15.018Z,15.15
2018-03-24T12:02:41.616Z,15.20
2018-03-24T12:05:08.214Z,15.68
2018-03-24T12:07:34.808Z,16.10
2018-03-24T12:10:01.450Z,16.25
2018-03-24T12:12:27.993Z,17.00
2018-03-24T12:14:54.590Z,14.07
2018-03-24T12:17:21.549Z,15.57
2018-03-24T12:19:48.473Z,17.00
2018-03-24T12:22:15.057Z,15.50
2018-03-24T12:24:41.661Z,15.18
2018-03-24T12:27:08.213Z,16.77
2018-03-24T12:29:34.801Z,15.65
2018-03-24T12:32:01.414Z,14.20
2018-03-24T12:34:27.966Z,14.85
2018-03-24T12:36:54.546Z,15.18
2018-03-24T12:39:21.490Z,13.52
2018-03-24T12:41:48.417Z,15.13
2018-03-24T12:44:15.009Z,15.23
2018-03-24T12:46:41.633Z,15.07
2018-03-24T12:49:08.176Z,14.87
2018-03-24T12:51:34.740Z,14.48
2018-03-24T12:54:01.689Z,21.70
2018-03-24T12:56:28.610Z,15.27
2018-03-24T12:58:55.189Z,16.05
2018-03-24T13:01:21.766Z,15.95
2018-03-24T13:03:48.305Z,16.20
2018-03-24T13:06:14.882Z,15.65
2018-03-24T13:08:41.449Z,16.67
2018-03-24T13:11:08.003Z,14.15
2018-03-24T13:13:34.616Z,15.77
2018-03-24T13:16:01.226Z,14.32
2018-03-24T13:18:28.157Z,15.27
2018-03-24T13:20:54.742Z,13.62
2018-03-24T13:23:21.683Z,15.35
2018-03-24T13:25:48.242Z,15.38
2018-03-24T13:28:15.194Z,15.30
2018-03-24T13:30:42.142Z,14.30
2018-03-24T13:33:09.059Z,14.98
2018-03-24T13:35:35.630Z,15.95
2018-03-24T13:38:02.226Z,14.05
2018-03-24T13:40:28.757Z,13.83
2018-03-24T13:42:55.689Z,13.83
2018-03-24T13:45:22.346Z,15.77
2018-03-24T13:47:48.901Z,15.17
2018-03-24T13:50:15.470Z,14.23
2018-03-24T13:52:42.415Z,13.93
2018-03-24T13:55:09.333Z,14.23
2018-03-24T13:57:35.913Z,14.70
2018-03-24T14:00:02.942Z,15.07
2018-03-24T14:02:29.489Z,14.90
2018-03-24T14:04:56.076Z,14.40
2018-03-24T14:07:23.029Z,14.00
2018-03-24T14:09:49.946Z,14.97
2018-03-24T14:12:16.535Z,15.23
2018-03-24T14:14:43.497Z,15.30
2018-03-24T14:17:10.100Z,14.83
2018-03-24T14:19:36.676Z,13.20
2018-03-24T14:22:03.642Z,14.67
2018-03-24T14:24:30.560Z,15.98
2018-03-24T14:26:57.142Z,13.60
2018-03-24T14:29:24.102Z,14.93
2018-03-24T14:31:51.022Z,14.63
2018-03-24T14:34:17.645Z,13.95
2018-03-24T14:36:44.309Z,13.30
2018-03-24T14:39:10.857Z,52.07
2018-03-24T14:41:37.452Z,17.40
2018-03-24T14:44:04.418Z,16.98
2018-03-24T14:46:31.000Z,16.80
2018-03-24T14:48:57.564Z,14.67
2018-03-24T14:51:24.146Z,14.93
2018-03-24T14:53:51.066Z,15.73
2018-03-24T14:56:17.653Z,14.52
2018-03-24T14:58:44.925Z,16.50
2018-03-24T15:01:11.477Z,17.12
2018-03-24T15:03:38.062Z,17.92
2018-03-24T15:06:04.654Z,17.45
2018-03-24T15:08:31.566Z,15.75
2018-03-24T15:10:58.157Z,15.70
2018-03-24T15:13:24.728Z,15.50
2018-03-24T15:15:51.554Z,14.80
2018-03-24T15:18:18.764Z,16.73
2018-03-24T15:20:45.964Z,15.50
2018-03-24T15:23:12.763Z,16.80
2018-03-24T15:25:39.570Z,14.38
2018-03-24T15:28:06.453Z,16.05
2018-03-24T15:30:45.442Z,16.62
2018-03-24T15:33:24.406Z,16.50
2018-03-24T15:36:03.272Z,17.00
2018-03-24T15:38:30.160Z,16.60
2018-03-24T15:40:56.986Z,16.33
2018-03-24T15:43:23.651Z,16.92
2018-03-24T15:45:50.637Z,17.77
2018-03-24T15:48:17.451Z,17.65
2018-03-24T15:50:44.315Z,16.50
2018-03-24T15:53:11.055Z,16.30
2018-03-24T15:55:37.689Z,15.98
2018-03-24T15:58:04.671Z,16.98
2018-03-24T16:00:31.349Z,16.02
2018-03-24T16:02:57.915Z,17.58
2018-03-24T16:05:24.513Z,16.40
2018-03-24T16:07:51.096Z,15.65
2018-03-24T16:10:17.665Z,16.25
2018-03-24T16:12:44.267Z,16.20
2018-03-24T16:15:10.918Z,17.98
2018-03-24T16:17:37.486Z,16.65
2018-03-24T16:20:04.093Z,16.70
2018-03-24T16:22:30.697Z,16.80
2018-03-24T16:24:57.239Z,16.12
2018-03-24T16:27:23.807Z,16.30
2018-03-24T16:29:50.386Z,16.87
2018-03-24T16:32:16.927Z,17.37
2018-03-24T16:34:43.954Z,16.30
2018-03-24T16:37:10.559Z,17.87
2018-03-24T16:39:37.110Z,15.27
2018-03-24T16:42:03.774Z,15.20
2018-03-24T16:44:30.374Z,16.00
2018-03-24T16:46:57.326Z,16.77
2018-03-24T16:49:24.265Z,16.62
2018-03-24T16:51:50.857Z,18.20
2018-03-24T16:54:17.496Z,17.00
2018-03-24T16:56:44.065Z,15.82
2018-03-24T16:59:10.654Z,16.45
2018-03-24T17:01:37.202Z,16.48
2018-03-24T17:04:03.838Z,16.92
2018-03-24T17:06:30.402Z,15.40
2018-03-24T17:08:56.958Z,15.63
2018-03-24T17:11:23.909Z,15.45
2018-03-24T17:13:50.477Z,15.55
2018-03-24T17:16:17.402Z,16.67
2018-03-24T17:18:44.032Z,16.92
2018-03-24T17:21:10.711Z,16.12
2018-03-24T17:23:37.438Z,17.25
2018-03-24T17:26:04.022Z,15.85
2018-03-24T17:28:30.974Z,16.23
2018-03-24T17:30:57.906Z,16.98
2018-03-24T17:33:24.606Z,15.05
2018-03-24T17:35:51.238Z,16.67
2018-03-24T17:38:18.165Z,17.30
2018-03-24T17:40:44.766Z,16.83
2018-03-24T17:43:11.409Z,15.63
2018-03-24T17:45:37.965Z,15.70
2018-03-24T17:48:04.637Z,15.38
2018-03-24T17:50:31.257Z,14.63
2018-03-24T17:52:57.819Z,14.80
2018-03-24T17:55:24.398Z,15.05
2018-03-24T17:57:51.001Z,14.60
2018-03-24T18:00:17.558Z,25.70
2018-03-24T18:02:44.129Z,15.93
2018-03-24T18:05:10.706Z,16.40
2018-03-24T18:07:37.258Z,16.45
2018-03-24T18:10:04.265Z,16.40
2018-03-24T18:12:30.834Z,15.50
2018-03-24T18:14:57.373Z,15.68
2018-03-24T18:17:23.946Z,15.77
2018-03-24T18:19:50.522Z,13.70
2018-03-24T18:22:17.442Z,14.40
2018-03-24T18:24:44.024Z,14.05
2018-03-24T18:27:10.614Z,14.70
2018-03-24T18:29:37.158Z,15.48
2018-03-24T18:32:03.769Z,15.55
2018-03-24T18:34:30.367Z,14.35
2018-03-24T18:36:56.935Z,14.63
2018-03-24T18:39:23.533Z,15.18
2018-03-24T18:41:50.133Z,15.63
2018-03-24T18:44:16.674Z,13.55
2018-03-24T18:46:43.329Z,15.10
2018-03-24T18:49:09.986Z,15.15
2018-03-24T18:51:36.534Z,16.33
2018-03-24T18:54:03.138Z,14.60
2018-03-24T18:56:29.710Z,15.30
2018-03-24T18:58:56.282Z,14.70
2018-03-24T19:01:22.849Z,13.93
2018-03-24T19:03:49.417Z,15.77
2018-03-24T19:06:15.970Z,15.05
2018-03-24T19:08:42.546Z,14.68
2018-03-24T19:11:09.130Z,15.95
2018-03-24T19:13:35.712Z,14.73
2018-03-24T19:16:02.305Z,15.70
2018-03-24T19:18:28.893Z,12.48
2018-03-24T19:20:55.422Z,14.55
2018-03-24T19:23:21.988Z,15.40
2018-03-24T19:25:49.038Z,15.10
2018-03-24T19:28:15.781Z,15.23
2018-03-24T19:30:42.725Z,14.75
2018-03-24T19:33:09.794Z,14.70
2018-03-24T19:35:36.732Z,15.07
2018-03-24T19:38:03.382Z,13.75
2018-03-24T19:40:29.961Z,13.55
2018-03-24T19:42:56.623Z,14.55
2018-03-24T19:45:23.185Z,15.48
2018-03-24T19:47:49.906Z,15.80
2018-03-24T19:50:16.442Z,16.00
2018-03-24T19:52:43.386Z,13.98
2018-03-24T19:55:10.337Z,14.23
2018-03-24T19:57:36.966Z,15.43
2018-03-24T20:00:03.580Z,14.80
2018-03-24T20:02:30.145Z,18.65
2018-03-24T20:04:56.687Z,16.02
2018-03-24T20:07:23.265Z,17.35
2018-03-24T20:09:49.833Z,17.87
2018-03-24T20:12:17.606Z,17.12
2018-03-24T20:14:44.537Z,17.83
2018-03-24T20:17:11.654Z,15.57
2018-03-24T20:19:38.214Z,16.23
2018-03-24T20:22:04.791Z,16.75
2018-03-24T20:24:31.374Z,17.37
2018-03-24T20:26:58.338Z,19.27
2018-03-24T20:29:25.273Z,17.23
2018-03-24T20:31:52.233Z,15.65
2018-03-24T20:34:19.138Z,17.10
2018-03-24T20:36:45.706Z,16.77
2018-03-24T20:39:12.567Z,16.20
2018-03-24T20:41:39.102Z,18.45
2018-03-24T20:44:05.675Z,17.60
2018-03-24T20:46:32.277Z,18.20
2018-03-24T20:48:58.804Z,18.95
2018-03-24T20:51:25.371Z,19.10
2018-03-24T20:53:51.962Z,19.05
2018-03-24T20:56:18.516Z,18.35
2018-03-24T20:58:45.459Z,19.10
2018-03-24T21:01:12.046Z,16.90
2018-03-24T21:03:38.586Z,16.85
2018-03-24T21:06:05.550Z,17.83
2018-03-24T21:08:32.158Z,17.87
2018-03-24T21:10:58.722Z,17.92
2018-03-24T21:13:25.286Z,17.98
2018-03-24T21:15:51.869Z,16.02
2018-03-24T21:18:18.457Z,15.60
2018-03-24T21:20:45.058Z,16.00
2018-03-24T21:23:11.652Z,15.25
2018-03-24T21:25:38.202Z,14.90
2018-03-24T21:28:04.773Z,15.48
2018-03-24T21:30:31.733Z,15.02
2018-03-24T21:32:58.294Z,15.10
2018-03-24T21:35:24.872Z,13.73
2018-03-24T21:37:51.455Z,16.02
2018-03-24T21:40:18.060Z,14.98
2018-03-24T21:42:44.629Z,15.73
2018-03-24T21:45:11.199Z,14.57
2018-03-24T21:47:37.766Z,14.27
2018-03-24T21:50:04.384Z,14.77
2018-03-24T21:52:30.969Z,14.40
2018-03-24T21:54:57.502Z,15.05
2018-03-24T21:57:24.478Z,13.60
2018-03-24T21:59:57.916Z,13.15
2018-03-24T22:02:24.494Z,12.95
2018-03-24T22:04:51.057Z,12.85
2018-03-24T22:07:18.133Z,14.32
2018-03-24T22:09:44.710Z,13.02
2018-03-24T22:12:11.284Z,13.82
2018-03-24T22:14:37.832Z,14.13
2018-03-24T22:17:04.421Z,13.27
2018-03-24T22:19:30.990Z,13.55
2018-03-24T22:21:57.558Z,13.27
2018-03-24T22:24:24.134Z,13.75
2018-03-24T22:26:50.706Z,12.20
2018-03-24T22:29:17.290Z,12.02
2018-03-24T22:31:43.874Z,13.62
2018-03-24T22:34:10.449Z,14.00
2018-03-24T22:36:37.349Z,12.88
2018-03-24T22:39:03.990Z,12.90
2018-03-24T22:41:30.573Z,11.85
2018-03-24T22:43:57.105Z,12.52
2018-03-24T22:46:23.682Z,13.30
2018-03-24T22:48:50.663Z,13.02
2018-03-24T22:51:17.186Z,13.15
2018-03-24T22:53:44.122Z,11.88
2018-03-24T22:56:10.733Z,13.05
2018-03-24T22:58:37.271Z,12.55
2018-03-24T23:01:03.903Z,11.98
2018-03-24T23:03:30.469Z,13.02
2018-03-24T23:05:57.005Z,12.68
2018-03-24T23:08:23.598Z,13.13
2018-03-24T23:10:50.184Z,14.15
2018-03-24T23:13:17.081Z,13.95
2018-03-24T23:15:43.641Z,14.55
2018-03-24T23:18:10.225Z,14.85
2018-03-24T23:20:37.142Z,15.45
2018-03-24T23:23:03.711Z,14.73
2018-03-24T23:25:30.296Z,14.20
2018-03-24T23:27:56.850Z,13.30
2018-03-24T23:30:23.441Z,14.38
2018-03-24T23:32:50.017Z,16.35
2018-03-24T23:35:16.953Z,14.10
2018-03-24T23:37:43.526Z,13.15
2018-03-24T23:40:10.458Z,13.93
2018-03-24T23:42:36.995Z,13.55
2018-03-24T23:45:03.652Z,14.82
2018-03-24T23:47:30.253Z,14.20
2018-03-24T23:49:56.828Z,13.02
2018-03-24T23:52:23.389Z,12.63
2018-03-24T23:54:49.962Z,12.63
2018-03-24T23:57:16.877Z,12.10
2018-03-24T23:59:43.457Z,13.68
